Time;durP1;ratioP1;P1;durP2;ratioP2;P2;SDS_P1;SDS_P2;PMS_P1;PMS_P2;Temp;Humidity;BMP_temperature;BMP_pressure;BME280_temperature;BME280_humidity;BME280_pressure;Samples;Min_cycle;Max_cycle;Signal;HPM_P1;HPM_P2
2023/10/19 00:01:15;;;;;;;2.72;1.88;;;13.00;81.00;;;;;;5062113;28;20391;-65
2023/10/19 00:03:41;;;;;;;2.85;2.10;;;13.00;81.00;;;;;;5045759;28;20033;-65
2023/10/19 00:06:07;;;;;;;2.40;1.65;;;13.00;81.00;;;;;;5068078;28;20052;-65
2023/10/19 00:08:42;;;;;;;1.70;1.42;;;13.00;81.00;;;;;;5067783;28;20037;-65
2023/10/19 00:11:09;;;;;;;2.92;1.67;;;13.00;80.90;;;;;;5069696;28;20444;-65
2023/10/19 00:13:39;;;;;;;2.90;1.90;;;13.10;81.00;;;;;;5066340;28;20035;-65
2023/10/19 00:16:16;;;;;;;4.65;2.03;;;13.10;81.20;;;;;;5062686;28;20036;-63
2023/10/19 00:18:42;;;;;;;3.20;2.50;;;13.10;81.30;;;;;;5066987;28;20131;-62
2023/10/19 00:21:27;;;;;;;2.17;1.52;;;13.10;81.40;;;;;;5062998;28;20543;-62
2023/10/19 00:24:01;;;;;;;2.42;1.80;;;13.10;81.50;;;;;;5052626;28;20032;-62
2023/10/19 00:26:29;;;;;;;2.90;2.00;;;13.10;81.50;;;;;;5068502;28;20028;-63
2023/10/19 00:28:56;;;;;;;3.42;2.15;;;13.20;81.50;;;;;;5064516;28;20070;-65
2023/10/19 00:31:22;;;;;;;5.78;2.05;;;13.20;81.80;;;;;;5060899;28;20848;-63
2023/10/19 00:33:51;;;;;;;5.32;2.95;;;13.20;82.70;;;;;;5046338;28;20028;-62
2023/10/19 00:36:20;;;;;;;2.72;2.05;;;13.20;82.40;;;;;;5050409;28;20136;-62
2023/10/19 00:41:20;;;;;;;2.83;1.95;;;13.20;82.60;;;;;;5068538;28;20093;-65
2023/10/19 00:43:46;;;;;;;2.33;1.58;;;13.20;82.50;;;;;;5068137;28;20083;-65
2023/10/19 00:48:49;;;;;;;2.40;1.92;;;13.30;82.50;;;;;;5065296;28;20037;-65
2023/10/19 00:54:14;;;;;;;3.80;2.40;;;13.30;82.50;;;;;;5065018;28;20127;-65
2023/10/19 00:56:51;;;;;;;4.03;2.53;;;13.40;82.50;;;;;;5063900;28;20020;-64
2023/10/19 00:59:29;;;;;;;2.53;1.98;;;13.40;82.40;;;;;;5060819;28;20522;-65
2023/10/19 01:02:16;;;;;;;5.95;1.85;;;13.40;82.40;;;;;;5067803;28;20520;-64
2023/10/19 01:04:42;;;;;;;3.60;2.05;;;13.50;82.50;;;;;;5065227;28;20020;-64
2023/10/19 01:07:15;;;;;;;5.38;1.88;;;13.50;82.50;;;;;;5067159;28;20257;-65
2023/10/19 01:09:43;;;;;;;5.53;2.58;;;13.50;82.50;;;;;;5067848;28;20074;-65
2023/10/19 01:17:43;;;;;;;;;;;13.50;82.80;;;;;;5061123;28;20044;-65
2023/10/19 01:20:21;;;;;;;6.32;3.15;;;13.50;83.10;;;;;;5056259;28;20274;-65
2023/10/19 01:23:41;;;;;;;4.28;2.75;;;13.40;83.10;;;;;;5059889;28;20119;-65
2023/10/19 01:25:41;;;;;;;3.13;2.60;;;13.50;83.60;;;;;;5042033;28;20033;-63
2023/10/19 01:28:09;;;;;;;5.90;3.08;;;13.50;83.70;;;;;;5066793;28;20565;-65
2023/10/19 01:30:36;;;;;;;3.60;2.50;;;13.50;83.90;;;;;;5067439;28;20085;-64
2023/10/19 01:33:12;;;;;;;3.42;2.40;;;13.60;83.80;;;;;;5046167;28;20033;-65
2023/10/19 01:38:25;;;;;;;5.90;3.13;;;13.60;83.50;;;;;;5065540;28;20085;-65
2023/10/19 01:40:51;;;;;;;2.60;1.83;;;13.70;83.50;;;;;;5049732;28;20452;-65
2023/10/19 01:43:30;;;;;;;3.10;2.35;;;13.70;83.40;;;;;;5066750;28;20078;-65
2023/10/19 01:46:04;;;;;;;3.22;2.03;;;13.70;83.30;;;;;;5061979;28;20037;-65
2023/10/19 01:48:34;;;;;;;4.63;2.60;;;13.80;83.40;;;;;;5068861;28;20024;-62
2023/10/19 01:51:04;;;;;;;3.45;2.40;;;13.80;83.50;;;;;;5066134;28;20031;-63
2023/10/19 01:53:31;;;;;;;3.95;2.75;;;13.80;83.70;;;;;;5068447;28;20032;-63
2023/10/19 01:55:58;;;;;;;6.35;2.58;;;13.80;83.60;;;;;;5062839;28;20471;-62
2023/10/19 01:58:27;;;;;;;3.03;2.22;;;13.80;83.60;;;;;;5048801;28;20043;-63
2023/10/19 02:01:00;;;;;;;4.22;2.38;;;13.80;83.50;;;;;;5071425;28;20025;-62
2023/10/19 02:03:28;;;;;;;2.92;1.90;;;13.80;83.40;;;;;;5070320;28;20480;-63
2023/10/19 02:06:10;;;;;;;4.05;2.20;;;13.90;83.40;;;;;;5052671;28;20097;-65
2023/10/19 02:08:38;;;;;;;2.97;1.65;;;13.90;83.40;;;;;;5067425;28;20036;-65
2023/10/19 02:11:13;;;;;;;4.25;2.35;;;13.90;83.40;;;;;;5046389;28;20128;-65
2023/10/19 02:13:39;;;;;;;2.83;2.33;;;13.90;83.50;;;;;;5044419;28;20418;-65
2023/10/19 02:16:06;;;;;;;4.40;2.08;;;14.00;83.60;;;;;;5066456;28;20459;-65
2023/10/19 02:18:34;;;;;;;3.67;2.35;;;14.00;83.70;;;;;;5048014;28;20089;-62
2023/10/19 02:21:06;;;;;;;4.55;2.45;;;14.00;83.70;;;;;;5068928;28;20085;-63
2023/10/19 02:23:35;;;;;;;4.40;2.35;;;14.00;83.70;;;;;;5067665;28;20041;-65
2023/10/19 02:26:03;;;;;;;4.18;2.00;;;14.00;83.70;;;;;;5068189;28;20029;-65
2023/10/19 02:28:32;;;;;;;4.30;2.90;;;14.00;83.80;;;;;;5063531;28;20094;-65
2023/10/19 02:31:10;;;;;;;3.10;1.90;;;14.00;84.10;;;;;;5065192;28;20043;-65
2023/10/19 02:33:36;;;;;;;2.60;1.63;;;14.10;84.10;;;;;;5067084;28;20402;-65
2023/10/19 02:36:03;;;;;;;3.53;2.03;;;14.10;84.00;;;;;;5068490;28;20107;-63
2023/10/19 02:38:29;;;;;;;2.60;1.90;;;14.10;84.00;;;;;;5070184;28;20071;-63
2023/10/19 02:40:55;;;;;;;4.70;2.50;;;14.20;84.00;;;;;;5068600;28;20020;-64
2023/10/19 02:43:23;;;;;;;3.45;2.78;;;14.20;84.10;;;;;;5070588;28;20484;-65
2023/10/19 02:45:51;;;;;;;3.05;2.17;;;14.20;84.30;;;;;;5069082;28;20052;-65
2023/10/19 02:48:17;;;;;;;3.47;2.55;;;14.20;84.30;;;;;;5066075;28;20506;-65
2023/10/19 02:50:42;;;;;;;2.92;1.85;;;14.30;84.20;;;;;;5046910;28;20043;-65
2023/10/19 02:53:12;;;;;;;2.90;2.00;;;14.30;84.20;;;;;;5066953;28;20086;-65
2023/10/19 02:55:40;;;;;;;2.85;2.00;;;14.30;84.10;;;;;;5068855;28;20051;-65
2023/10/19 02:58:06;;;;;;;3.25;1.98;;;14.30;84.00;;;;;;5066464;28;20041;-65
2023/10/19 03:00:34;;;;;;;3.25;2.08;;;14.30;84.00;;;;;;5065882;28;20033;-63
2023/10/19 03:03:00;;;;;;;3.45;2.28;;;14.40;84.00;;;;;;5061867;28;20115;-63
2023/10/19 03:05:27;;;;;;;2.67;1.88;;;14.40;84.00;;;;;;5049479;28;20127;-62
2023/10/19 03:07:52;;;;;;;3.70;1.88;;;14.40;83.90;;;;;;5052023;28;20040;-63
2023/10/19 03:10:34;;;;;;;4.18;2.10;;;14.40;83.90;;;;;;5068795;28;20252;-65
2023/10/19 03:13:04;;;;;;;2.90;1.80;;;14.40;83.90;;;;;;5069007;28;20029;-65
2023/10/19 03:15:33;;;;;;;3.60;2.30;;;14.40;83.90;;;;;;5065298;28;20124;-65
2023/10/19 03:18:01;;;;;;;4.65;1.80;;;14.50;83.90;;;;;;5067820;28;20039;-65
2023/10/19 03:20:33;;;;;;;2.53;1.98;;;14.50;83.90;;;;;;5065973;28;20032;-65
2023/10/19 03:23:01;;;;;;;3.80;2.00;;;14.50;83.90;;;;;;5066948;28;20133;-65
2023/10/19 03:28:12;;;;;;;2.72;1.80;;;14.50;83.70;;;;;;5051476;28;20103;-65
2023/10/19 03:30:40;;;;;;;2.28;1.98;;;14.50;83.70;;;;;;5067729;28;20331;-65
2023/10/19 03:33:12;;;;;;;2.13;1.27;;;14.50;83.70;;;;;;5063139;28;20037;-65
2023/10/19 03:35:41;;;;;;;3.60;2.50;;;14.60;83.70;;;;;;5063989;28;20032;-65
2023/10/19 03:38:18;;;;;;;2.95;1.67;;;14.50;83.80;;;;;;5058772;28;20539;-65
2023/10/19 03:40:51;;;;;;;3.38;2.38;;;14.50;83.90;;;;;;5056984;28;20368;-65
2023/10/19 03:43:23;;;;;;;2.75;1.48;;;14.50;84.10;;;;;;5059463;28;20032;-65
2023/10/19 03:45:55;;;;;;;2.63;2.05;;;14.50;84.20;;;;;;5057299;28;20124;-65
2023/10/19 03:48:29;;;;;;;2.25;1.60;;;14.50;84.20;;;;;;5053279;28;20089;-65
2023/10/19 03:50:56;;;;;;;3.15;1.60;;;14.50;84.40;;;;;;5059109;28;20435;-65
2023/10/19 03:53:23;;;;;;;2.75;1.98;;;14.50;84.60;;;;;;5058126;28;20090;-65
2023/10/19 03:55:52;;;;;;;2.17;1.63;;;14.50;84.60;;;;;;5062000;28;20032;-65
2023/10/19 03:58:20;;;;;;;2.75;1.92;;;14.50;84.50;;;;;;5057824;28;20028;-64
2023/10/19 04:00:51;;;;;;;2.60;1.30;;;14.60;84.50;;;;;;5052847;28;20028;-65
2023/10/19 04:03:17;;;;;;;2.22;1.65;;;14.60;84.40;;;;;;5052619;28;20059;-65
2023/10/19 04:05:46;;;;;;;1.70;1.30;;;14.60;84.30;;;;;;5057432;28;20063;-62
2023/10/19 04:08:20;;;;;;;1.80;1.52;;;14.60;84.30;;;;;;5057117;28;20028;-62
2023/10/19 04:11:07;;;;;;;2.38;1.38;;;14.70;84.30;;;;;;5061239;28;20579;-62
2023/10/19 04:13:32;;;;;;;2.25;1.45;;;14.70;84.20;;;;;;5063968;28;20078;-62
2023/10/19 04:16:00;;;;;;;1.52;1.17;;;14.70;84.30;;;;;;5053380;28;20036;-63
2023/10/19 04:18:27;;;;;;;1.75;1.20;;;14.60;84.20;;;;;;5060644;28;20125;-63
2023/10/19 04:23:20;;;;;;;1.88;1.50;;;14.60;84.30;;;;;;5059258;28;20045;-63
2023/10/19 04:25:46;;;;;;;1.80;1.20;;;14.60;84.30;;;;;;5061320;28;20036;-63
2023/10/19 04:28:13;;;;;;;1.00;0.90;;;14.60;84.40;;;;;;5044559;28;20051;-62
2023/10/19 04:30:39;;;;;;;2.05;1.08;;;14.60;84.50;;;;;;5060871;28;20276;-63
2023/10/19 04:33:09;;;;;;;1.92;1.27;;;14.60;84.40;;;;;;5058265;28;20045;-62
2023/10/19 04:35:41;;;;;;;0.80;0.77;;;14.60;84.40;;;;;;5060236;28;20450;-65
2023/10/19 04:38:06;;;;;;;0.90;0.82;;;14.70;84.40;;;;;;5059548;28;20506;-62
2023/10/19 04:40:32;;;;;;;0.80;0.43;;;14.70;84.30;;;;;;5059481;28;20025;-62
2023/10/19 04:42:58;;;;;;;1.15;0.98;;;14.70;84.20;;;;;;5039997;28;20033;-63
2023/10/19 04:45:24;;;;;;;1.15;0.88;;;14.80;84.20;;;;;;5061524;28;20035;-63
2023/10/19 04:47:53;;;;;;;1.25;1.05;;;14.80;84.20;;;;;;5044475;28;20119;-63
2023/10/19 04:50:18;;;;;;;0.73;0.60;;;14.80;84.10;;;;;;5062178;28;20036;-63
2023/10/19 04:52:44;;;;;;;1.67;0.82;;;14.80;84.10;;;;;;5060972;28;20035;-62
2023/10/19 04:55:10;;;;;;;2.08;1.08;;;14.80;84.00;;;;;;5061393;28;20041;-63
2023/10/19 04:57:36;;;;;;;1.02;0.80;;;14.80;84.10;;;;;;5066454;28;20029;-63
2023/10/19 05:00:03;;;;;;;1.08;0.82;;;14.90;84.00;;;;;;5060386;28;20093;-62
2023/10/19 05:02:29;;;;;;;0.85;0.80;;;14.90;84.00;;;;;;5058832;28;20029;-65
2023/10/19 05:04:55;;;;;;;1.70;0.80;;;14.90;83.90;;;;;;5053905;28;20032;-65
2023/10/19 05:07:21;;;;;;;0.95;0.88;;;14.90;84.00;;;;;;5063991;28;20541;-64
2023/10/19 05:09:47;;;;;;;1.60;0.80;;;14.90;84.00;;;;;;5068091;28;20056;-63
2023/10/19 05:12:14;;;;;;;1.10;1.05;;;14.90;84.00;;;;;;5062902;28;20036;-65
2023/10/19 05:14:41;;;;;;;1.20;1.10;;;14.80;84.10;;;;;;5030848;28;20056;-65
2023/10/19 05:17:08;;;;;;;1.08;0.98;;;14.80;84.10;;;;;;5064664;28;20037;-63
2023/10/19 05:19:35;;;;;;;1.27;1.13;;;14.80;84.10;;;;;;5061617;28;20021;-63
2023/10/19 05:22:02;;;;;;;1.33;1.20;;;14.70;84.20;;;;;;5066323;28;20017;-63
2023/10/19 05:24:28;;;;;;;1.17;0.68;;;14.60;84.20;;;;;;5068281;28;20035;-63
2023/10/19 05:26:54;;;;;;;1.05;0.88;;;14.60;84.30;;;;;;5070838;28;20152;-63
2023/10/19 05:29:20;;;;;;;0.75;0.70;;;14.50;84.30;;;;;;5071788;28;20041;-65
2023/10/19 05:31:46;;;;;;;0.75;0.75;;;14.50;84.30;;;;;;5069145;28;20443;-65
2023/10/19 05:34:12;;;;;;;1.10;0.98;;;14.50;84.30;;;;;;5066376;28;20119;-62
2023/10/19 05:36:39;;;;;;;1.85;1.10;;;14.50;84.40;;;;;;5067634;28;20021;-63
2023/10/19 05:39:07;;;;;;;1.20;0.98;;;14.40;84.30;;;;;;5071836;28;20515;-63
2023/10/19 05:41:37;;;;;;;1.30;1.10;;;14.40;84.30;;;;;;5064494;28;20038;-63
2023/10/19 05:44:03;;;;;;;2.88;1.10;;;14.40;84.30;;;;;;5067739;28;20426;-63
2023/10/19 05:46:29;;;;;;;1.67;1.23;;;14.30;84.30;;;;;;5047271;28;20120;-63
2023/10/19 05:48:56;;;;;;;1.30;0.85;;;14.30;84.40;;;;;;5063738;28;20033;-63
2023/10/19 05:51:22;;;;;;;1.60;1.25;;;14.30;84.40;;;;;;5069009;28;20138;-65
2023/10/19 05:53:48;;;;;;;1.08;0.98;;;14.30;84.50;;;;;;5070537;28;20054;-65
2023/10/19 05:56:16;;;;;;;1.63;0.82;;;14.30;84.50;;;;;;5065314;28;20040;-63
2023/10/19 05:58:43;;;;;;;1.90;1.23;;;14.30;84.50;;;;;;5063970;28;20017;-65
2023/10/19 06:01:08;;;;;;;2.17;1.30;;;14.30;84.50;;;;;;5064641;28;20118;-65
2023/10/19 06:03:34;;;;;;;1.13;1.00;;;14.30;84.50;;;;;;5064747;28;20029;-65
2023/10/19 06:06:00;;;;;;;1.35;1.00;;;14.30;84.50;;;;;;5060663;28;20055;-63
2023/10/19 06:08:27;;;;;;;1.58;1.13;;;14.30;84.40;;;;;;5057952;28;20029;-63
2023/10/19 06:10:53;;;;;;;1.92;1.02;;;14.40;84.50;;;;;;5065160;28;20406;-63
2023/10/19 06:13:20;;;;;;;2.65;1.17;;;14.40;84.50;;;;;;5070974;28;20028;-63
2023/10/19 06:15:47;;;;;;;1.42;1.10;;;14.40;84.50;;;;;;5066698;28;20033;-65
2023/10/19 06:18:13;;;;;;;1.08;0.90;;;14.40;84.60;;;;;;5061004;28;20028;-65
2023/10/19 06:20:44;;;;;;;1.02;0.93;;;14.40;84.60;;;;;;5062443;28;20513;-65
2023/10/19 06:23:11;;;;;;;1.13;0.90;;;14.50;84.70;;;;;;5042290;28;20047;-65
2023/10/19 06:25:37;;;;;;;1.90;1.38;;;14.50;84.70;;;;;;5066991;28;20040;-65
2023/10/19 06:28:04;;;;;;;0.85;0.70;;;14.50;84.60;;;;;;5064496;28;20514;-66
2023/10/19 06:30:30;;;;;;;1.48;0.90;;;14.50;84.50;;;;;;5067512;28;20115;-65
2023/10/19 06:33:00;;;;;;;0.90;0.70;;;14.60;84.50;;;;;;5059106;28;20171;-65
2023/10/19 06:35:28;;;;;;;1.02;0.85;;;14.60;84.50;;;;;;5067436;28;20017;-65
2023/10/19 06:37:58;;;;;;;0.63;0.63;;;14.60;84.40;;;;;;5060738;28;20429;-66
2023/10/19 06:40:26;;;;;;;1.55;1.08;;;14.70;84.50;;;;;;5065335;28;20475;-63
2023/10/19 06:42:55;;;;;;;1.63;1.00;;;14.70;84.50;;;;;;5057977;28;20028;-65
2023/10/19 06:45:21;;;;;;;0.73;0.70;;;14.70;84.50;;;;;;5046342;28;20480;-63
2023/10/19 06:47:49;;;;;;;0.98;0.90;;;14.70;84.50;;;;;;5068099;28;20112;-65
2023/10/19 06:50:16;;;;;;;1.77;1.00;;;14.70;84.40;;;;;;5069414;28;20039;-65
2023/10/19 06:52:43;;;;;;;1.17;1.08;;;14.70;84.40;;;;;;5069828;28;20062;-63
2023/10/19 06:55:13;;;;;;;0.90;0.70;;;14.70;84.50;;;;;;5066106;28;20065;-65
2023/10/19 06:57:45;;;;;;;1.15;0.85;;;14.70;84.50;;;;;;5065554;28;20032;-65
2023/10/19 07:00:16;;;;;;;;;;;14.80;84.50;;;;;;5064412;28;20432;-65
2023/10/19 07:02:44;;;;;;;1.15;0.70;;;14.80;84.50;;;;;;5067134;28;20378;-65
2023/10/19 07:05:17;;;;;;;0.82;0.82;;;14.80;84.50;;;;;;5062095;28;20499;-65
2023/10/19 07:07:44;;;;;;;3.47;1.17;;;14.80;84.50;;;;;;5066874;28;20103;-65
2023/10/19 07:10:14;;;;;;;1.15;0.82;;;14.80;84.40;;;;;;5057083;28;20043;-65
2023/10/19 07:12:45;;;;;;;1.25;0.60;;;14.80;84.50;;;;;;5066305;28;20051;-65
2023/10/19 07:15:14;;;;;;;1.30;1.13;;;14.80;84.60;;;;;;5065010;28;20064;-65
2023/10/19 07:17:43;;;;;;;0.98;0.73;;;14.90;84.70;;;;;;5050112;28;20025;-65
2023/10/19 07:20:32;;;;;;;0.60;0.60;;;14.90;84.60;;;;;;5064335;28;20028;-63
2023/10/19 07:23:21;;;;;;;1.52;1.10;;;15.00;84.60;;;;;;5065993;28;20037;-62
2023/10/19 07:25:47;;;;;;;1.15;0.95;;;15.00;84.50;;;;;;5064984;28;20191;-61
2023/10/19 07:28:14;;;;;;;1.92;0.88;;;15.10;84.50;;;;;;5067115;28;20094;-63
2023/10/19 07:30:41;;;;;;;1.60;1.10;;;15.10;84.40;;;;;;5068908;28;20041;-62
2023/10/19 07:33:08;;;;;;;0.88;0.70;;;15.10;84.40;;;;;;5063279;28;20459;-66
2023/10/19 07:35:42;;;;;;;1.05;0.88;;;15.10;84.30;;;;;;5066980;28;20509;-63
2023/10/19 07:38:08;;;;;;;1.20;0.88;;;15.20;84.50;;;;;;5052424;28;20041;-64
2023/10/19 07:40:35;;;;;;;1.10;0.88;;;15.20;84.30;;;;;;5067040;28;20021;-66
2023/10/19 07:43:01;;;;;;;0.77;0.77;;;15.30;84.40;;;;;;5066135;28;20029;-65
2023/10/19 07:45:27;;;;;;;1.25;1.00;;;15.30;84.30;;;;;;5067720;28;20053;-64
2023/10/19 07:47:53;;;;;;;0.77;0.68;;;15.30;84.30;;;;;;5064830;28;20052;-64
2023/10/19 07:50:19;;;;;;;0.75;0.70;;;15.40;84.30;;;;;;5064309;28;20068;-64
2023/10/19 07:52:48;;;;;;;0.73;0.68;;;15.40;84.20;;;;;;5049315;28;20503;-64
2023/10/19 07:55:14;;;;;;;1.90;0.82;;;15.50;84.20;;;;;;5067071;28;20395;-64
2023/10/19 07:57:43;;;;;;;2.95;0.88;;;15.50;84.20;;;;;;5064171;28;20067;-64
2023/10/19 08:00:09;;;;;;;0.60;0.60;;;15.50;84.20;;;;;;5067115;28;20028;-62
2023/10/19 08:02:41;;;;;;;1.35;0.70;;;15.50;84.30;;;;;;5063943;28;20446;-63
2023/10/19 08:05:11;;;;;;;2.70;1.20;;;15.50;84.20;;;;;;5067250;28;20056;-64
2023/10/19 08:07:39;;;;;;;1.20;0.90;;;15.60;84.20;;;;;;5059038;28;20852;-62
2023/10/19 08:10:09;;;;;;;0.98;0.90;;;15.60;84.30;;;;;;5065890;28;20033;-63
2023/10/19 08:12:35;;;;;;;1.55;0.80;;;15.60;84.40;;;;;;5066820;28;20438;-62
2023/10/19 08:15:01;;;;;;;0.73;0.50;;;15.70;84.40;;;;;;5066655;28;20025;-63
2023/10/19 08:17:27;;;;;;;0.60;0.55;;;15.70;84.40;;;;;;5065240;28;20025;-62
2023/10/19 08:19:53;;;;;;;0.55;0.50;;;15.70;84.40;;;;;;5067557;28;20027;-63
2023/10/19 08:22:19;;;;;;;0.60;0.60;;;15.70;84.40;;;;;;5067533;28;20032;-62
2023/10/19 08:24:45;;;;;;;0.60;0.47;;;15.80;84.40;;;;;;5067558;28;20059;-63
2023/10/19 08:27:12;;;;;;;0.60;0.60;;;15.80;84.30;;;;;;5060332;28;20072;-62
2023/10/19 08:29:38;;;;;;;1.52;0.50;;;15.90;84.30;;;;;;5044442;28;20024;-63
2023/10/19 08:32:04;;;;;;;5.25;0.70;;;16.00;84.20;;;;;;5064610;28;20365;-63
2023/10/19 08:34:35;;;;;;;0.30;0.30;;;16.00;84.20;;;;;;5064308;28;20078;-63
2023/10/19 08:37:02;;;;;;;2.10;0.70;;;16.00;84.10;;;;;;5061548;28;20031;-62
2023/10/19 08:39:35;;;;;;;0.40;0.40;;;16.00;84.10;;;;;;5061934;28;20033;-63
2023/10/19 08:42:05;;;;;;;0.75;0.75;;;16.10;84.20;;;;;;5065148;28;20036;-62
2023/10/19 08:44:35;;;;;;;0.50;0.50;;;16.10;84.10;;;;;;5061851;28;20545;-63
2023/10/19 08:47:01;;;;;;;0.60;0.50;;;16.10;84.10;;;;;;5065391;28;20028;-62
2023/10/19 08:49:27;;;;;;;2.28;1.27;;;16.20;84.50;;;;;;5066395;28;20025;-63
2023/10/19 08:51:54;;;;;;;3.03;1.00;;;16.20;84.40;;;;;;5062131;28;20039;-63
2023/10/19 08:54:19;;;;;;;0.45;0.40;;;16.30;84.40;;;;;;5067535;28;20073;-62
2023/10/19 08:56:47;;;;;;;0.65;0.47;;;16.30;84.30;;;;;;5069031;28;20021;-63
2023/10/19 08:59:15;;;;;;;2.08;0.88;;;16.40;84.20;;;;;;5066877;28;20033;-63
2023/10/19 09:01:44;;;;;;;4.43;0.50;;;16.40;84.10;;;;;;5071545;28;20162;-64
2023/10/19 09:04:11;;;;;;;0.55;0.55;;;16.50;84.20;;;;;;5066078;28;20085;-63
2023/10/19 09:06:45;;;;;;;0.40;0.30;;;16.50;84.10;;;;;;5069864;28;20490;-64
2023/10/19 09:09:16;;;;;;;0.63;0.55;;;16.60;84.10;;;;;;5068949;28;20584;-64
2023/10/19 09:11:48;;;;;;;0.68;0.60;;;16.70;84.10;;;;;;5071153;28;20043;-64
2023/10/19 09:14:17;;;;;;;;;;;16.70;83.90;;;;;;5066345;28;20036;-64
2023/10/19 09:16:56;;;;;;;0.52;0.52;;;16.70;83.80;;;;;;5068037;28;19928;-64
2023/10/19 09:19:43;;;;;;;0.70;0.68;;;16.80;83.90;;;;;;5068229;28;20120;-64
2023/10/19 09:22:18;;;;;;;0.57;0.57;;;16.80;83.80;;;;;;5063863;28;20463;-64
2023/10/19 09:24:49;;;;;;;6.32;1.23;;;16.80;83.80;;;;;;5067265;28;20062;-64
2023/10/19 09:27:19;;;;;;;1.30;0.73;;;16.90;83.80;;;;;;5063782;28;20036;-64
2023/10/19 09:29:45;;;;;;;0.73;0.70;;;16.90;83.90;;;;;;5066790;28;20051;-64
2023/10/19 09:32:13;;;;;;;2.63;0.50;;;17.00;83.90;;;;;;5068318;28;20040;-64
2023/10/19 09:34:43;;;;;;;1.45;1.23;;;17.00;83.80;;;;;;5066030;28;20154;-64
2023/10/19 09:37:10;;;;;;;0.73;0.73;;;17.10;83.90;;;;;;5058740;28;20033;-64
2023/10/19 09:39:36;;;;;;;1.40;1.00;;;17.10;83.90;;;;;;5063015;28;20108;-64
2023/10/19 09:42:11;;;;;;;0.70;0.60;;;17.00;83.90;;;;;;5068358;28;20095;-64
2023/10/19 09:44:45;;;;;;;2.13;0.93;;;17.10;84.10;;;;;;5065718;28;20091;-64
2023/10/19 09:47:14;;;;;;;4.20;0.60;;;17.20;84.30;;;;;;5062346;28;20062;-64
2023/10/19 09:49:44;;;;;;;0.85;0.85;;;17.30;84.10;;;;;;5067673;28;20017;-64
2023/10/19 09:52:13;;;;;;;0.90;0.90;;;17.40;84.10;;;;;;5064030;28;20066;-64
2023/10/19 09:55:04;;;;;;;1.25;0.82;;;17.50;84.10;;;;;;5064378;28;20021;-64
2023/10/19 09:57:42;;;;;;;0.95;0.77;;;17.50;84.10;;;;;;5063544;28;20057;-64
2023/10/19 10:00:15;;;;;;;1.63;1.05;;;17.50;84.10;;;;;;5065157;28;20025;-64
2023/10/19 10:02:46;;;;;;;1.05;0.90;;;17.60;84.20;;;;;;5051912;28;20573;-65
2023/10/19 10:05:42;;;;;;;0.85;0.40;;;17.60;84.20;;;;;;5064244;28;20514;-64
2023/10/19 10:08:17;;;;;;;1.63;0.80;;;17.80;84.10;;;;;;5060919;28;20036;-65
2023/10/19 10:10:52;;;;;;;0.70;0.70;;;18.00;84.50;;;;;;5068171;28;20123;-64
2023/10/19 10:13:27;;;;;;;1.25;0.57;;;18.20;83.70;;;;;;5068140;28;20402;-64
2023/10/19 10:16:06;;;;;;;0.75;0.75;;;18.40;83.30;;;;;;5062657;28;20017;-64
2023/10/19 10:18:32;;;;;;;1.00;0.80;;;18.60;82.90;;;;;;5061843;28;20219;-63
2023/10/19 10:21:10;;;;;;;0.80;0.63;;;18.70;82.50;;;;;;5066086;28;20103;-63
2023/10/19 10:23:52;;;;;;;2.72;0.95;;;18.80;82.60;;;;;;5067328;28;20035;-63
2023/10/19 10:26:19;;;;;;;0.75;0.70;;;18.80;82.70;;;;;;5061882;28;20043;-63
2023/10/19 10:29:09;;;;;;;3.70;0.75;;;19.00;82.60;;;;;;5060665;28;20427;-63
2023/10/19 10:31:40;;;;;;;1.58;1.02;;;19.10;82.40;;;;;;5063383;28;20085;-63
2023/10/19 10:34:09;;;;;;;1.87;0.80;;;19.20;82.20;;;;;;5067568;28;20495;-63
2023/10/19 10:36:57;;;;;;;1.70;1.52;;;19.10;82.20;;;;;;5067249;28;20474;-63
2023/10/19 10:39:25;;;;;;;4.85;1.25;;;19.00;82.50;;;;;;5062412;28;20029;-63
2023/10/19 10:41:56;;;;;;;1.02;0.95;;;18.80;83.10;;;;;;5065751;28;20092;-62
2023/10/19 10:44:36;;;;;;;1.70;0.90;;;18.70;83.40;;;;;;5064115;28;20028;-62
2023/10/19 10:47:01;;;;;;;5.25;1.27;;;18.60;83.60;;;;;;5065623;28;20040;-62
2023/10/19 10:49:27;;;;;;;1.95;0.95;;;18.60;83.70;;;;;;5064424;28;20208;-63
2023/10/19 10:51:54;;;;;;;1.20;1.10;;;18.70;83.70;;;;;;5067382;28;20033;-62
2023/10/19 10:54:23;;;;;;;1.08;0.60;;;18.70;83.60;;;;;;5061863;28;20037;-62
2023/10/19 10:56:50;;;;;;;0.88;0.70;;;18.70;83.60;;;;;;5063697;28;20685;-64
2023/10/19 10:59:16;;;;;;;1.13;0.60;;;18.80;83.50;;;;;;5046303;28;20282;-64
2023/10/19 11:01:42;;;;;;;1.13;0.90;;;18.90;83.30;;;;;;5060481;28;21037;-64
2023/10/19 11:04:10;;;;;;;1.70;0.95;;;18.90;83.20;;;;;;5065476;28;20093;-64
2023/10/19 11:06:53;;;;;;;1.00;0.60;;;19.00;83.10;;;;;;5065138;28;20119;-64
2023/10/19 11:09:18;;;;;;;1.13;0.68;;;19.00;83.00;;;;;;5061605;28;20350;-64
2023/10/19 11:11:45;;;;;;;5.03;1.27;;;19.00;83.10;;;;;;5048008;28;20462;-64
2023/10/19 11:14:11;;;;;;;1.13;0.60;;;18.90;83.10;;;;;;5058647;28;20078;-64
2023/10/19 11:16:39;;;;;;;4.55;1.42;;;18.90;83.20;;;;;;5064708;28;20395;-64
2023/10/19 11:19:05;;;;;;;1.85;0.88;;;18.90;83.20;;;;;;5060099;28;20037;-64
2023/10/19 11:21:31;;;;;;;2.25;0.90;;;18.90;83.20;;;;;;5063776;28;20062;-65
2023/10/19 11:23:57;;;;;;;2.88;1.23;;;18.90;83.20;;;;;;5065733;28;20037;-64
2023/10/19 11:26:24;;;;;;;0.82;0.57;;;18.90;83.30;;;;;;5066795;28;20040;-65
2023/10/19 11:29:00;;;;;;;0.88;0.77;;;19.00;83.30;;;;;;5066259;28;20037;-65
2023/10/19 11:31:27;;;;;;;3.47;0.65;;;19.10;83.10;;;;;;5065636;28;20056;-63
2023/10/19 11:34:01;;;;;;;2.83;0.70;;;19.30;82.90;;;;;;5063216;28;20028;-63
2023/10/19 11:36:26;;;;;;;3.60;0.93;;;19.50;82.40;;;;;;5062017;28;20052;-63
2023/10/19 11:38:53;;;;;;;3.42;1.15;;;19.80;82.00;;;;;;5063569;28;20205;-63
2023/10/19 11:41:19;;;;;;;4.18;1.58;;;20.00;81.50;;;;;;5063122;28;20881;-63
2023/10/19 11:43:46;;;;;;;1.40;1.25;;;20.00;81.40;;;;;;5066500;28;20068;-63
2023/10/19 11:46:14;;;;;;;2.78;0.52;;;19.90;81.60;;;;;;5067379;28;20032;-63
2023/10/19 11:48:42;;;;;;;1.65;1.13;;;19.90;81.80;;;;;;5067510;28;20040;-65
2023/10/19 11:51:10;;;;;;;1.05;0.70;;;19.80;81.90;;;;;;5066644;28;20044;-64
2023/10/19 11:53:37;;;;;;;6.35;1.48;;;19.70;82.10;;;;;;5055315;28;20028;-64
2023/10/19 11:56:05;;;;;;;0.70;0.70;;;19.70;82.30;;;;;;5066280;28;20024;-64
2023/10/19 11:58:32;;;;;;;3.95;1.20;;;19.70;82.40;;;;;;5065496;28;20388;-65
2023/10/19 12:00:59;;;;;;;5.40;1.42;;;19.90;82.60;;;;;;5056036;28;20119;-63
2023/10/19 12:03:25;;;;;;;1.92;1.13;;;20.30;81.70;;;;;;5048048;28;20517;-63
2023/10/19 12:05:53;;;;;;;1.50;1.30;;;20.40;81.20;;;;;;5061517;28;20072;-63
2023/10/19 12:08:18;;;;;;;1.08;0.90;;;20.50;81.00;;;;;;5063404;28;20045;-63
2023/10/19 12:10:44;;;;;;;1.60;0.70;;;20.40;81.00;;;;;;5048978;28;20604;-63
2023/10/19 12:13:10;;;;;;;2.25;0.98;;;20.40;81.20;;;;;;5064712;28;20111;-63
2023/10/19 12:15:36;;;;;;;1.30;0.80;;;20.50;81.10;;;;;;5063547;28;20033;-63
2023/10/19 12:18:03;;;;;;;1.50;0.88;;;20.70;80.90;;;;;;5067103;28;20036;-63
2023/10/19 12:20:31;;;;;;;4.50;1.52;;;20.90;80.50;;;;;;5068077;28;20555;-63
2023/10/19 12:22:58;;;;;;;4.15;1.05;;;21.00;80.50;;;;;;5043596;28;20123;-63
2023/10/19 12:25:29;;;;;;;1.15;0.95;;;21.10;79.80;;;;;;5064179;28;20498;-63
2023/10/19 12:27:59;;;;;;;1.13;0.60;;;21.30;79.60;;;;;;5064934;28;20379;-63
2023/10/19 12:30:32;;;;;;;3.70;0.95;;;21.40;79.30;;;;;;5066107;28;20025;-63
2023/10/19 12:33:00;;;;;;;1.33;1.23;;;21.30;78.60;;;;;;5040966;28;20033;-63
2023/10/19 12:35:42;;;;;;;4.63;1.23;;;21.00;78.80;;;;;;5056781;28;20116;-63
2023/10/19 12:38:15;;;;;;;2.83;0.70;;;20.70;79.30;;;;;;5060992;28;20036;-63
2023/10/19 12:40:42;;;;;;;2.58;1.30;;;20.40;79.90;;;;;;5055237;28;20275;-63
2023/10/19 12:43:10;;;;;;;1.98;0.90;;;20.30;80.40;;;;;;5058829;28;20044;-63
2023/10/19 12:45:37;;;;;;;2.45;0.93;;;20.10;80.70;;;;;;5058996;28;20063;-63
2023/10/19 12:48:06;;;;;;;1.38;0.85;;;19.90;81.10;;;;;;5056531;28;20111;-63
2023/10/19 12:50:34;;;;;;;0.80;0.68;;;19.80;81.40;;;;;;5059023;28;20032;-63
2023/10/19 12:53:00;;;;;;;1.25;0.90;;;19.80;81.50;;;;;;5064377;28;20296;-63
2023/10/19 12:55:30;;;;;;;4.15;0.95;;;19.70;81.70;;;;;;5062936;28;20472;-63
2023/10/19 12:57:57;;;;;;;1.13;0.90;;;19.60;81.90;;;;;;5060535;28;20055;-63
2023/10/19 13:00:23;;;;;;;1.02;0.95;;;19.40;82.20;;;;;;5062188;28;20024;-63
2023/10/19 13:02:50;;;;;;;1.58;0.90;;;19.30;82.40;;;;;;5068432;28;20040;-63
2023/10/19 13:05:18;;;;;;;1.40;1.13;;;19.30;82.60;;;;;;5062581;28;20048;-63
2023/10/19 13:07:44;;;;;;;1.13;1.00;;;19.20;82.80;;;;;;5067882;28;20028;-63
2023/10/19 13:10:11;;;;;;;5.28;1.60;;;19.10;82.80;;;;;;5062450;28;20434;-63
2023/10/19 13:12:37;;;;;;;4.15;1.50;;;19.10;82.80;;;;;;5059426;28;20040;-63
2023/10/19 13:15:11;;;;;;;2.17;0.95;;;19.10;83.00;;;;;;5068580;28;20025;-63
2023/10/19 13:17:36;;;;;;;1.67;0.88;;;19.10;83.10;;;;;;5066090;28;20068;-63
2023/10/19 13:20:15;;;;;;;2.38;0.93;;;19.00;83.20;;;;;;5049430;28;20075;-63